Time;durP1;ratioP1;P1;durP2;ratioP2;P2;SDS_P1;SDS_P2;PMS_P1;PMS_P2;Temp;Humidity;BMP_temperature;BMP_pressure;BME280_temperature;BME280_humidity;BME280_pressure;Samples;Min_cycle;Max_cycle;Signal;HPM_P1;HPM_P2
2023/03/27 00:01:20;;;;;;;0.40;0.40;;;4.90;99.90;;;;;;5006992;28;20289;-86
2023/03/27 00:03:48;;;;;;;0.20;0.20;;;4.80;99.90;;;;;;5005233;28;20250;-86
2023/03/27 00:06:18;;;;;;;0.30;0.30;;;4.80;99.90;;;;;;5006936;28;20219;-85
2023/03/27 00:08:46;;;;;;;0.37;0.37;;;4.80;99.90;;;;;;5024981;28;20266;-86
2023/03/27 00:11:12;;;;;;;0.23;0.23;;;4.80;99.90;;;;;;5023371;28;20701;-87
2023/03/27 00:13:38;;;;;;;0.30;0.30;;;4.80;99.90;;;;;;5006807;28;20215;-86
2023/03/27 00:16:04;;;;;;;0.43;0.43;;;4.70;99.90;;;;;;5023661;28;20245;-86
2023/03/27 00:18:31;;;;;;;0.30;0.30;;;4.70;99.90;;;;;;5007159;28;20719;-86
2023/03/27 00:21:01;;;;;;;0.20;0.20;;;4.70;99.90;;;;;;5007667;28;20195;-85
2023/03/27 00:23:31;;;;;;;0.70;0.70;;;4.80;99.90;;;;;;5007355;28;20223;-86
2023/03/27 00:25:57;;;;;;;0.80;0.80;;;5.00;99.90;;;;;;5024672;28;20329;-86
2023/03/27 00:28:27;;;;;;;0.20;0.20;;;5.00;99.90;;;;;;5024774;28;20219;-86
2023/03/27 00:30:55;;;;;;;0.30;0.30;;;5.10;99.90;;;;;;5024428;28;20217;-86
2023/03/27 00:33:22;;;;;;;0.20;0.20;;;4.90;99.90;;;;;;5008090;28;21096;-87
2023/03/27 00:35:49;;;;;;;0.20;0.20;;;4.90;99.90;;;;;;5019346;28;20186;-86
2023/03/27 00:38:17;;;;;;;0.20;0.20;;;4.90;99.90;;;;;;5004345;28;20219;-85
2023/03/27 00:40:43;;;;;;;0.67;0.67;;;4.90;99.90;;;;;;5019504;28;20702;-86
2023/03/27 00:43:23;;;;;;;0.30;0.30;;;4.90;99.90;;;;;;5021524;28;20237;-86
2023/03/27 00:45:54;;;;;;;0.73;0.40;;;4.90;99.90;;;;;;5004832;28;20229;-86
2023/03/27 00:48:21;;;;;;;0.20;0.20;;;5.10;99.90;;;;;;5006722;28;20750;-85
2023/03/27 00:50:48;;;;;;;0.30;0.30;;;5.10;99.90;;;;;;5013889;28;21032;-86
2023/03/27 00:53:22;;;;;;;0.20;0.20;;;5.10;99.90;;;;;;5016319;28;20210;-86
2023/03/27 00:55:51;;;;;;;0.20;0.20;;;5.10;99.90;;;;;;4997813;28;20218;-86
2023/03/27 00:58:21;;;;;;;0.20;0.20;;;5.10;99.90;;;;;;5003701;28;20211;-87
2023/03/27 01:00:53;;;;;;;0.20;0.20;;;5.30;99.90;;;;;;5014327;28;20229;-86
2023/03/27 01:03:20;;;;;;;0.20;0.20;;;5.30;99.90;;;;;;5010745;28;20233;-87
2023/03/27 01:05:47;;;;;;;0.30;0.30;;;5.20;99.90;;;;;;5007531;28;20229;-86
2023/03/27 01:08:14;;;;;;;0.50;0.47;;;5.20;99.90;;;;;;5020071;28;20226;-87
2023/03/27 01:11:09;;;;;;;0.20;0.20;;;5.30;99.90;;;;;;5021877;28;20762;-86
2023/03/27 01:14:04;;;;;;;0.20;0.20;;;5.30;99.90;;;;;;5022366;28;20574;-86
2023/03/27 01:17:07;;;;;;;0.27;0.27;;;5.40;99.90;;;;;;5019768;28;20269;-86
2023/03/27 01:20:08;;;;;;;0.40;0.40;;;5.40;99.90;;;;;;5024965;28;20215;-87
2023/03/27 01:22:59;;;;;;;0.20;0.20;;;5.30;99.90;;;;;;5009494;28;20231;-86
2023/03/27 01:25:31;;;;;;;0.60;0.60;;;5.40;99.90;;;;;;5026277;28;20284;-87
2023/03/27 01:28:09;;;;;;;0.30;0.30;;;5.50;99.90;;;;;;5027284;28;20282;-86
2023/03/27 01:30:40;;;;;;;1.07;1.07;;;5.40;99.90;;;;;;5024341;28;20269;-86
2023/03/27 01:33:25;;;;;;;0.60;0.60;;;5.30;99.90;;;;;;5019398;28;20233;-86
2023/03/27 01:36:09;;;;;;;0.50;0.50;;;5.30;99.90;;;;;;5032821;28;20192;-86
2023/03/27 01:39:04;;;;;;;0.30;0.30;;;5.40;99.90;;;;;;5023068;28;20214;-87
2023/03/27 01:41:39;;;;;;;0.30;0.30;;;5.30;99.90;;;;;;5017439;28;20215;-86
2023/03/27 01:44:30;;;;;;;0.27;0.27;;;5.20;99.90;;;;;;5014040;28;20218;-86
2023/03/27 01:47:06;;;;;;;0.37;0.37;;;5.20;99.90;;;;;;5020367;28;20226;-87
2023/03/27 01:49:39;;;;;;;0.63;0.63;;;5.20;99.90;;;;;;5006464;28;20532;-86
2023/03/27 01:52:16;;;;;;;1.83;1.43;;;5.20;99.90;;;;;;5025707;28;20312;-86
2023/03/27 01:54:46;;;;;;;0.40;0.40;;;5.20;99.90;;;;;;5023224;28;20455;-85
2023/03/27 01:57:23;;;;;;;0.20;0.20;;;5.20;99.90;;;;;;5011606;28;20285;-87
2023/03/27 01:59:54;;;;;;;0.20;0.20;;;5.20;99.90;;;;;;5022616;28;20273;-85
2023/03/27 02:02:28;;;;;;;0.20;0.20;;;5.20;99.90;;;;;;5002898;28;20219;-86
2023/03/27 02:05:11;;;;;;;0.30;0.30;;;5.20;99.90;;;;;;5022170;28;20245;-86
2023/03/27 02:07:41;;;;;;;0.27;0.27;;;5.30;99.90;;;;;;5016800;28;20269;-85
2023/03/27 02:10:13;;;;;;;0.30;0.30;;;5.30;99.90;;;;;;5019339;28;20651;-85
2023/03/27 02:12:45;;;;;;;0.20;0.20;;;5.30;99.90;;;;;;5026840;28;20214;-87
2023/03/27 02:15:16;;;;;;;0.20;0.20;;;5.30;99.90;;;;;;5025090;28;20199;-86
2023/03/27 02:17:46;;;;;;;0.30;0.30;;;5.30;99.90;;;;;;5022691;28;20178;-87
2023/03/27 02:20:15;;;;;;;0.20;0.20;;;5.20;99.90;;;;;;5017980;28;20219;-86
2023/03/27 02:22:47;;;;;;;0.20;0.20;;;5.30;99.90;;;;;;5021647;28;20214;-85
2023/03/27 02:25:33;;;;;;;0.20;0.20;;;5.40;99.90;;;;;;5026751;28;20231;-83
2023/03/27 02:28:23;;;;;;;0.57;0.57;;;5.20;99.90;;;;;;5019575;28;20215;-85
2023/03/27 02:30:55;;;;;;;0.30;0.30;;;5.10;99.90;;;;;;5020248;28;20226;-86
2023/03/27 02:33:45;;;;;;;0.67;0.67;;;5.20;99.90;;;;;;5021270;28;20616;-87
2023/03/27 02:36:20;;;;;;;0.30;0.30;;;5.10;99.90;;;;;;5017877;28;20253;-87
2023/03/27 02:39:27;;;;;;;0.40;0.40;;;5.00;99.90;;;;;;5025760;28;20192;-86
2023/03/27 02:42:16;;;;;;;0.40;0.40;;;4.80;99.90;;;;;;4988937;28;20215;-87
2023/03/27 02:44:53;;;;;;;0.40;0.40;;;4.50;99.90;;;;;;5029130;28;20784;-87
2023/03/27 02:47:29;;;;;;;0.47;0.47;;;4.20;99.90;;;;;;5025476;28;20214;-85
2023/03/27 02:50:01;;;;;;;0.30;0.30;;;4.10;99.90;;;;;;5020176;28;20218;-86
2023/03/27 02:52:33;;;;;;;1.47;0.63;;;4.10;99.90;;;;;;5001637;28;20226;-86
2023/03/27 02:55:11;;;;;;;0.30;0.30;;;4.10;99.90;;;;;;5022954;28;20219;-86
2023/03/27 02:57:38;;;;;;;0.20;0.20;;;4.10;99.90;;;;;;5019184;28;20214;-86
2023/03/27 03:00:24;;;;;;;9.80;1.60;;;4.00;99.90;;;;;;5020521;28;20225;-86
2023/03/27 03:02:58;;;;;;;0.40;0.40;;;4.10;99.90;;;;;;5021838;28;20183;-86
2023/03/27 03:05:25;;;;;;;0.23;0.23;;;4.10;99.90;;;;;;5021723;28;20238;-86
2023/03/27 03:07:53;;;;;;;0.30;0.30;;;4.20;99.90;;;;;;5004659;28;20219;-85
2023/03/27 03:10:20;;;;;;;0.40;0.40;;;4.50;99.90;;;;;;5001323;28;21130;-86
2023/03/27 03:12:46;;;;;;;0.20;0.20;;;4.90;99.90;;;;;;5023328;28;20219;-86
2023/03/27 03:15:12;;;;;;;0.60;0.60;;;5.10;99.90;;;;;;5018478;28;20304;-86
2023/03/27 03:17:37;;;;;;;0.57;0.30;;;5.10;99.90;;;;;;5017419;28;20723;-85
2023/03/27 03:20:04;;;;;;;0.40;0.40;;;5.10;99.90;;;;;;5004327;28;20226;-86
2023/03/27 03:22:33;;;;;;;0.40;0.40;;;5.10;99.90;;;;;;5021916;28;20244;-85
2023/03/27 03:24:59;;;;;;;0.30;0.30;;;5.00;99.90;;;;;;5012963;28;20241;-85
2023/03/27 03:27:27;;;;;;;1.00;0.40;;;5.10;99.90;;;;;;5008256;28;20226;-86
2023/03/27 03:29:55;;;;;;;0.33;0.33;;;5.10;99.90;;;;;;4991129;28;20194;-85
2023/03/27 03:32:21;;;;;;;0.33;0.33;;;5.10;99.90;;;;;;5007273;28;20193;-86
2023/03/27 03:34:47;;;;;;;0.30;0.30;;;5.00;99.90;;;;;;5016212;28;20301;-86
2023/03/27 03:37:13;;;;;;;0.30;0.30;;;4.90;99.90;;;;;;5017610;28;20244;-86
2023/03/27 03:39:39;;;;;;;0.30;0.30;;;4.80;99.90;;;;;;5005302;28;20214;-86
2023/03/27 03:42:05;;;;;;;0.40;0.40;;;4.80;99.90;;;;;;5014702;28;20594;-86
2023/03/27 03:44:30;;;;;;;0.30;0.30;;;4.90;99.90;;;;;;5020997;28;20214;-86
2023/03/27 03:46:56;;;;;;;0.60;0.60;;;4.90;99.90;;;;;;5004238;28;20227;-86
2023/03/27 03:49:22;;;;;;;4.07;1.63;;;4.90;99.90;;;;;;5021127;28;21062;-87
2023/03/27 03:51:48;;;;;;;0.90;0.33;;;4.80;99.90;;;;;;5015104;28;20222;-86
2023/03/27 03:54:13;;;;;;;0.20;0.20;;;4.70;99.90;;;;;;5004452;28;20195;-86
2023/03/27 03:56:40;;;;;;;1.07;0.50;;;4.60;99.90;;;;;;5005709;28;20530;-86
2023/03/27 03:59:10;;;;;;;0.50;0.30;;;4.50;99.90;;;;;;5008065;28;20723;-85
2023/03/27 04:01:36;;;;;;;0.40;0.40;;;4.40;99.90;;;;;;5013734;28;20257;-85
2023/03/27 04:04:03;;;;;;;0.40;0.40;;;4.50;99.90;;;;;;5008434;28;20223;-86
2023/03/27 04:06:31;;;;;;;0.20;0.20;;;4.60;99.90;;;;;;5017671;28;20254;-86
2023/03/27 04:08:57;;;;;;;0.40;0.40;;;4.60;99.90;;;;;;5019525;28;20182;-85
2023/03/27 04:11:23;;;;;;;0.30;0.30;;;4.50;99.90;;;;;;4994962;28;20707;-86
2023/03/27 04:13:49;;;;;;;0.30;0.30;;;4.50;99.90;;;;;;4994852;28;20296;-86
2023/03/27 04:16:15;;;;;;;0.30;0.30;;;4.50;99.90;;;;;;5013910;28;20341;-84
2023/03/27 04:18:41;;;;;;;0.40;0.40;;;4.60;99.90;;;;;;5019955;28;20318;-86
2023/03/27 04:21:14;;;;;;;0.20;0.20;;;4.60;99.90;;;;;;5007791;28;20312;-86
2023/03/27 04:23:46;;;;;;;0.30;0.30;;;4.60;99.90;;;;;;5008991;28;20186;-85
2023/03/27 04:26:14;;;;;;;0.23;0.23;;;4.50;99.90;;;;;;5021997;28;20227;-84
2023/03/27 04:28:40;;;;;;;0.60;0.60;;;4.50;99.90;;;;;;5015154;28;20270;-84
2023/03/27 04:31:09;;;;;;;0.30;0.30;;;4.50;99.90;;;;;;5022119;28;20253;-83
2023/03/27 04:33:39;;;;;;;0.63;0.63;;;4.60;99.90;;;;;;4994931;28;20650;-84
2023/03/27 04:36:06;;;;;;;1.50;0.57;;;4.50;99.90;;;;;;5018835;28;20508;-83
2023/03/27 04:38:36;;;;;;;0.20;0.20;;;4.60;99.90;;;;;;5017157;28;21003;-84
2023/03/27 04:41:03;;;;;;;0.20;0.20;;;4.60;99.90;;;;;;5015740;28;20688;-84
2023/03/27 04:43:29;;;;;;;0.20;0.20;;;4.60;99.90;;;;;;5011630;28;20215;-87
2023/03/27 04:45:55;;;;;;;0.23;0.23;;;4.60;99.90;;;;;;5004856;28;20236;-87
2023/03/27 04:48:21;;;;;;;0.30;0.30;;;4.50;99.90;;;;;;5006006;28;20593;-86
2023/03/27 04:50:50;;;;;;;0.30;0.30;;;4.50;99.90;;;;;;5018527;28;20187;-88
2023/03/27 04:53:19;;;;;;;0.20;0.20;;;4.50;99.90;;;;;;5018332;28;20280;-87
2023/03/27 04:55:45;;;;;;;0.70;0.70;;;4.50;99.90;;;;;;5004620;28;20280;-87
2023/03/27 04:58:12;;;;;;;0.30;0.30;;;4.40;99.90;;;;;;5016594;28;20413;-87
2023/03/27 05:00:41;;;;;;;0.30;0.30;;;4.40;99.90;;;;;;5019422;28;20222;-87
2023/03/27 05:03:07;;;;;;;0.73;0.73;;;4.40;99.90;;;;;;5001557;28;20696;-87
2023/03/27 05:05:33;;;;;;;0.23;0.23;;;4.30;99.90;;;;;;5002144;28;20238;-88
2023/03/27 05:07:59;;;;;;;0.30;0.30;;;4.30;99.90;;;;;;4985683;28;20308;-87
2023/03/27 05:10:25;;;;;;;0.30;0.30;;;4.40;99.90;;;;;;5001175;28;20230;-88
2023/03/27 05:12:52;;;;;;;1.27;1.17;;;4.70;99.90;;;;;;5021777;28;20218;-87
2023/03/27 05:15:19;;;;;;;0.30;0.30;;;4.60;99.90;;;;;;5014740;28;20187;-88
2023/03/27 05:17:51;;;;;;;0.30;0.30;;;4.40;99.90;;;;;;5017514;28;20179;-88
2023/03/27 05:20:18;;;;;;;0.67;0.67;;;4.30;99.90;;;;;;4984449;28;20226;-88
2023/03/27 05:22:48;;;;;;;0.30;0.30;;;4.20;99.90;;;;;;5027914;28;20274;-88
2023/03/27 05:25:14;;;;;;;0.30;0.30;;;4.10;99.90;;;;;;5013603;28;20233;-88
2023/03/27 05:27:45;;;;;;;0.20;0.20;;;4.10;99.90;;;;;;5022334;28;20233;-87
2023/03/27 05:30:13;;;;;;;0.20;0.20;;;4.00;99.90;;;;;;5018163;28;20191;-87
2023/03/27 05:32:38;;;;;;;0.20;0.20;;;4.10;99.90;;;;;;4988332;28;20191;-87
2023/03/27 05:35:05;;;;;;;0.40;0.40;;;4.10;99.90;;;;;;5008073;28;20231;-88
2023/03/27 05:37:30;;;;;;;0.20;0.20;;;4.10;99.90;;;;;;5019739;28;20313;-88
2023/03/27 05:39:56;;;;;;;0.20;0.20;;;4.10;99.90;;;;;;5015740;28;20727;-87
2023/03/27 05:42:22;;;;;;;0.20;0.20;;;4.20;99.90;;;;;;4999149;28;20214;-87
2023/03/27 05:44:48;;;;;;;0.20;0.20;;;4.20;99.90;;;;;;5008294;28;20281;-87
2023/03/27 05:47:14;;;;;;;0.20;0.20;;;4.20;99.90;;;;;;5027147;28;20211;-87
2023/03/27 05:49:39;;;;;;;0.70;0.40;;;4.30;99.90;;;;;;5012094;28;20568;-87
2023/03/27 05:52:05;;;;;;;0.20;0.20;;;4.30;99.90;;;;;;5005142;28;20218;-88
2023/03/27 05:54:31;;;;;;;0.30;0.30;;;4.40;99.90;;;;;;5025890;28;20234;-88
2023/03/27 05:56:57;;;;;;;0.30;0.30;;;4.40;99.90;;;;;;5030443;28;20567;-87
2023/03/27 05:59:23;;;;;;;0.50;0.50;;;4.40;99.90;;;;;;4998407;28;20210;-88
2023/03/27 06:01:49;;;;;;;0.20;0.20;;;4.50;99.90;;;;;;5023684;28;20571;-86
2023/03/27 06:04:16;;;;;;;0.20;0.20;;;4.90;99.90;;;;;;5036097;28;20792;-87
2023/03/27 06:06:45;;;;;;;0.20;0.20;;;5.00;99.90;;;;;;5029791;28;20234;-86
2023/03/27 06:09:11;;;;;;;1.53;0.40;;;5.40;99.90;;;;;;5010564;28;20190;-87
2023/03/27 06:11:41;;;;;;;0.40;0.40;;;5.20;99.90;;;;;;5016115;28;20191;-86
2023/03/27 06:14:07;;;;;;;0.30;0.30;;;5.30;99.90;;;;;;5028613;28;20663;-87
2023/03/27 06:16:33;;;;;;;0.20;0.20;;;5.30;99.90;;;;;;5040264;28;20214;-85
2023/03/27 06:18:58;;;;;;;0.20;0.20;;;5.40;99.90;;;;;;5025126;28;20221;-85
2023/03/27 06:21:24;;;;;;;0.27;0.27;;;5.50;99.90;;;;;;5019377;28;20232;-87
2023/03/27 06:23:50;;;;;;;1.10;0.70;;;5.40;99.90;;;;;;5033202;28;20352;-87
2023/03/27 06:26:17;;;;;;;0.40;0.40;;;5.40;99.90;;;;;;5029224;28;20265;-85
2023/03/27 06:28:43;;;;;;;0.30;0.30;;;5.30;99.90;;;;;;5029164;28;20753;-88
2023/03/27 06:31:09;;;;;;;0.20;0.20;;;5.40;99.90;;;;;;5027597;28;20222;-86
2023/03/27 06:33:35;;;;;;;0.20;0.20;;;5.50;99.90;;;;;;5036403;28;20313;-85
2023/03/27 06:36:00;;;;;;;0.33;0.33;;;5.70;99.90;;;;;;5038719;28;20261;-86
2023/03/27 06:38:31;;;;;;;0.30;0.30;;;5.70;99.90;;;;;;5039006;28;20277;-86
2023/03/27 06:40:58;;;;;;;0.20;0.20;;;5.80;99.90;;;;;;5030483;28;20673;-86
2023/03/27 06:43:25;;;;;;;1.73;1.63;;;6.30;99.90;;;;;;5011552;28;20801;-86
2023/03/27 06:45:51;;;;;;;0.40;0.40;;;6.70;99.90;;;;;;5006736;28;20234;-86
2023/03/27 06:48:19;;;;;;;0.57;0.57;;;6.10;99.90;;;;;;5013255;28;20542;-86
2023/03/27 06:50:46;;;;;;;1.53;1.50;;;5.40;99.90;;;;;;5025670;28;20194;-86
2023/03/27 06:53:15;;;;;;;0.20;0.20;;;4.80;99.90;;;;;;5015399;28;20214;-86
2023/03/27 06:55:42;;;;;;;0.20;0.20;;;4.60;99.90;;;;;;5009389;28;20233;-84
2023/03/27 06:58:12;;;;;;;0.30;0.30;;;4.50;99.90;;;;;;5026586;28;20420;-85
2023/03/27 07:00:39;;;;;;;0.30;0.30;;;4.90;99.90;;;;;;5028085;28;20325;-87
2023/03/27 07:03:08;;;;;;;0.20;0.20;;;6.30;99.90;;;;;;5027801;28;20198;-85
2023/03/27 07:05:36;;;;;;;0.20;0.20;;;7.50;99.90;;;;;;5017636;28;20210;-85
2023/03/27 07:08:05;;;;;;;0.20;0.20;;;7.60;99.90;;;;;;5024902;28;20309;-86
2023/03/27 07:10:31;;;;;;;0.40;0.40;;;7.60;99.90;;;;;;5013407;28;20613;-86
2023/03/27 07:12:57;;;;;;;0.30;0.30;;;7.90;99.90;;;;;;5027123;28;20309;-86
2023/03/27 07:15:24;;;;;;;0.47;0.47;;;7.60;99.90;;;;;;5011515;28;20233;-86
2023/03/27 07:17:58;;;;;;;0.20;0.20;;;8.00;99.90;;;;;;5027955;28;20190;-86
2023/03/27 07:20:28;;;;;;;0.20;0.20;;;8.80;99.90;;;;;;5012151;28;20724;-86
2023/03/27 07:22:56;;;;;;;0.20;0.20;;;8.20;99.90;;;;;;5025436;28;20233;-86
2023/03/27 07:25:23;;;;;;;0.20;0.20;;;7.30;99.90;;;;;;5009942;28;20230;-86
2023/03/27 07:27:49;;;;;;;0.87;0.87;;;6.60;99.90;;;;;;5012119;28;20218;-86
2023/03/27 07:30:15;;;;;;;0.50;0.50;;;6.10;99.90;;;;;;5013674;28;20592;-86
2023/03/27 07:32:43;;;;;;;0.30;0.30;;;5.90;99.90;;;;;;5033738;28;20269;-86
2023/03/27 07:35:10;;;;;;;0.87;0.30;;;7.10;99.90;;;;;;5020556;28;20337;-86
2023/03/27 07:37:37;;;;;;;0.93;0.67;;;7.90;99.90;;;;;;5012207;28;20344;-86
2023/03/27 07:40:07;;;;;;;0.30;0.30;;;8.40;99.90;;;;;;5027241;28;20236;-86
2023/03/27 07:42:34;;;;;;;0.20;0.20;;;7.60;99.90;;;;;;5030191;28;20222;-88
2023/03/27 07:45:01;;;;;;;0.27;0.27;;;6.70;99.90;;;;;;5027187;28;20212;-87
2023/03/27 07:47:27;;;;;;;0.20;0.20;;;6.40;99.90;;;;;;5014513;28;20194;-87
2023/03/27 07:49:53;;;;;;;0.27;0.27;;;7.00;99.90;;;;;;5022832;28;20304;-86
2023/03/27 07:52:19;;;;;;;0.20;0.20;;;5.40;99.90;;;;;;5028143;28;20218;-86
2023/03/27 07:54:46;;;;;;;0.83;0.37;;;4.00;99.90;;;;;;5016708;28;20708;-87
2023/03/27 07:57:14;;;;;;;0.30;0.30;;;3.40;99.90;;;;;;5028850;28;20190;-87
2023/03/27 07:59:40;;;;;;;0.20;0.20;;;3.20;99.90;;;;;;5024286;28;20226;-87
2023/03/27 08:02:08;;;;;;;0.60;0.60;;;3.10;99.90;;;;;;5028744;28;20241;-86
2023/03/27 08:04:35;;;;;;;0.47;0.47;;;3.20;99.90;;;;;;5009699;28;20222;-88
2023/03/27 08:07:01;;;;;;;0.30;0.30;;;3.30;99.90;;;;;;5012414;28;20309;-90
2023/03/27 08:09:27;;;;;;;0.30;0.30;;;3.30;99.90;;;;;;5007295;28;20282;-87
2023/03/27 08:11:52;;;;;;;0.40;0.40;;;3.70;99.90;;;;;;5031681;28;20525;-87
2023/03/27 08:14:18;;;;;;;0.33;0.33;;;5.10;99.90;;;;;;5034031;28;20750;-87
2023/03/27 08:16:44;;;;;;;0.53;0.50;;;6.00;99.90;;;;;;5032560;28;20309;-86
2023/03/27 08:19:10;;;;;;;0.30;0.30;;;6.40;99.90;;;;;;5007940;28;20234;-87
2023/03/27 08:21:37;;;;;;;0.87;0.83;;;7.00;99.90;;;;;;5033028;28;21057;-87
2023/03/27 08:24:03;;;;;;;0.20;0.20;;;7.30;99.90;;;;;;5023632;28;20203;-87
2023/03/27 08:26:32;;;;;;;0.37;0.37;;;7.50;99.90;;;;;;5021813;28;20242;-86
2023/03/27 08:28:59;;;;;;;0.20;0.20;;;7.90;99.90;;;;;;4991587;28;20245;-86
2023/03/27 08:31:27;;;;;;;0.20;0.20;;;7.90;99.90;;;;;;5008592;28;20230;-87
2023/03/27 08:33:53;;;;;;;0.20;0.20;;;7.50;99.90;;;;;;5027191;28;20263;-86
2023/03/27 08:36:19;;;;;;;1.03;0.80;;;7.20;99.90;;;;;;5005395;28;20214;-86
2023/03/27 08:38:45;;;;;;;0.33;0.33;;;7.60;99.90;;;;;;5021816;28;20202;-85
2023/03/27 08:41:25;;;;;;;0.20;0.20;;;7.60;99.90;;;;;;5004954;28;20218;-87
2023/03/27 08:43:55;;;;;;;0.67;0.67;;;7.70;99.90;;;;;;5022949;28;20633;-87
2023/03/27 08:46:39;;;;;;;0.53;0.53;;;7.40;99.90;;;;;;5025007;28;20240;-87
2023/03/27 08:49:13;;;;;;;0.23;0.23;;;7.10;99.90;;;;;;5016761;28;20218;-87
2023/03/27 08:51:48;;;;;;;0.30;0.30;;;7.70;99.90;;;;;;5023395;28;20618;-87
2023/03/27 08:54:23;;;;;;;1.10;0.77;;;7.90;99.90;;;;;;5005546;28;20376;-87
2023/03/27 08:56:49;;;;;;;0.10;0.10;;;8.10;99.90;;;;;;5022439;28;20197;-87
2023/03/27 08:59:18;;;;;;;0.20;0.20;;;6.70;99.90;;;;;;5021545;28;20214;-87
2023/03/27 09:01:58;;;;;;;0.30;0.30;;;6.00;99.90;;;;;;5028767;28;20240;-86
2023/03/27 09:04:45;;;;;;;0.60;0.40;;;6.10;99.90;;;;;;5019120;28;20210;-87
2023/03/27 09:07:42;;;;;;;0.73;0.73;;;6.00;99.90;;;;;;5022364;28;20231;-87
2023/03/27 09:10:24;;;;;;;0.43;0.43;;;5.70;99.90;;;;;;5004669;28;20727;-87
2023/03/27 09:13:23;;;;;;;0.20;0.20;;;6.00;99.90;;;;;;5008082;28;20241;-88
2023/03/27 09:15:58;;;;;;;0.10;0.10;;;6.80;99.90;;;;;;4997747;28;20223;-87
2023/03/27 09:18:27;;;;;;;0.53;0.53;;;7.30;99.90;;;;;;5022448;28;20226;-87
2023/03/27 09:20:58;;;;;;;0.30;0.30;;;7.00;99.90;;;;;;5004681;28;20304;-87
2023/03/27 09:23:40;;;;;;;0.27;0.27;;;6.80;99.90;;;;;;5003991;28;20190;-87
2023/03/27 09:26:13;;;;;;;0.40;0.40;;;7.10;99.90;;;;;;5022164;28;20635;-87
2023/03/27 09:29:07;;;;;;;0.20;0.20;;;7.30;99.90;;;;;;5021235;28;20800;-86
2023/03/27 09:31:47;;;;;;;0.20;0.20;;;7.50;99.90;;;;;;5022590;28;20253;-87
2023/03/27 09:34:19;;;;;;;0.23;0.23;;;7.70;99.90;;;;;;5022365;28;20237;-87
2023/03/27 09:36:45;;;;;;;0.20;0.20;;;8.00;99.90;;;;;;5022880;28;20213;-87
2023/03/27 09:39:16;;;;;;;1.13;0.57;;;8.20;99.90;;;;;;5026314;28;20187;-87
2023/03/27 09:41:56;;;;;;;2.27;0.30;;;8.80;99.90;;;;;;5009232;28;20195;-87
2023/03/27 09:44:29;;;;;;;9.70;1.27;;;8.50;99.90;;;;;;5026884;28;20214;-87
2023/03/27 09:47:10;;;;;;;0.20;0.20;;;9.30;99.90;;;;;;5026316;28;20821;-87
2023/03/27 09:49:39;;;;;;;0.20;0.20;;;8.50;99.90;;;;;;5027916;28;20248;-87
2023/03/27 09:52:06;;;;;;;0.37;0.17;;;8.00;99.90;;;;;;5018857;28;20490;-87
2023/03/27 09:54:52;;;;;;;6.70;0.40;;;7.20;99.90;;;;;;5013378;28;20285;-88
2023/03/27 09:57:20;;;;;;;0.40;0.40;;;6.90;99.90;;;;;;5022520;28;20222;-87
2023/03/27 10:00:14;;;;;;;0.10;0.10;;;8.10;99.90;;;;;;5027024;28;20194;-87
2023/03/27 10:02:40;;;;;;;0.27;0.23;;;8.60;99.90;;;;;;5027200;28;20202;-87
2023/03/27 10:05:18;;;;;;;0.20;0.20;;;8.20;99.90;;;;;;5008397;28;20222;-86
2023/03/27 10:07:47;;;;;;;0.40;0.30;;;8.50;99.90;;;;;;5024603;28;20225;-86
2023/03/27 10:10:16;;;;;;;0.20;0.20;;;8.50;99.90;;;;;;5024180;28;20578;-87
2023/03/27 10:12:46;;;;;;;8.40;0.50;;;8.10;99.90;;;;;;5025036;28;20687;-86
2023/03/27 10:15:32;;;;;;;0.10;0.10;;;7.30;99.90;;;;;;5024591;28;20270;-87
2023/03/27 10:18:01;;;;;;;0.30;0.30;;;6.60;99.90;;;;;;5024280;28;20187;-88
2023/03/27 10:20:27;;;;;;;0.13;0.13;;;6.00;99.90;;;;;;5025648;28;20214;-86
2023/03/27 10:22:58;;;;;;;1.07;0.97;;;5.80;99.90;;;;;;5024575;28;20226;-85
2023/03/27 10:25:38;;;;;;;0.70;0.30;;;6.20;99.90;;;;;;5005599;28;20251;-86
2023/03/27 10:28:16;;;;;;;0.30;0.30;;;7.60;99.90;;;;;;5000193;28;20227;-87
2023/03/27 10:30:42;;;;;;;0.20;0.20;;;8.20;99.90;;;;;;5014252;28;20215;-86
2023/03/27 10:33:08;;;;;;;0.30;0.20;;;8.20;99.90;;;;;;5023424;28;20201;-87
2023/03/27 10:35:42;;;;;;;0.17;0.17;;;8.20;99.90;;;;;;5016160;28;20234;-88
2023/03/27 10:38:16;;;;;;;0.17;0.17;;;8.20;99.90;;;;;;4998296;28;20296;-87
2023/03/27 10:40:48;;;;;;;0.17;0.17;;;8.50;99.90;;;;;;4988612;28;20229;-87
2023/03/27 10:43:29;;;;;;;0.17;0.17;;;8.40;99.90;;;;;;5015400;28;20210;-88
2023/03/27 10:46:05;;;;;;;0.20;0.20;;;8.30;99.90;;;;;;4996736;28;20334;-87
2023/03/27 10:48:40;;;;;;;0.20;0.20;;;8.00;99.90;;;;;;4997312;28;20261;-87
2023/03/27 10:51:30;;;;;;;1.37;1.27;;;8.90;99.90;;;;;;4996125;28;20649;-87
2023/03/27 10:54:01;;;;;;;0.27;0.27;;;8.90;99.90;;;;;;5016055;28;20234;-87
2023/03/27 10:56:52;;;;;;;0.17;0.17;;;8.10;99.90;;;;;;4996197;28;20268;-89
2023/03/27 10:59:43;;;;;;;0.17;0.17;;;7.30;99.90;;;;;;5011839;28;20226;-88
2023/03/27 11:02:36;;;;;;;0.10;0.10;;;6.50;99.90;;;;;;5016195;28;21069;-89
2023/03/27 11:05:07;;;;;;;0.70;0.70;;;6.30;99.90;;;;;;5011837;28;20592;-88
2023/03/27 11:07:41;;;;;;;0.20;0.20;;;6.60;99.90;;;;;;5013550;28;20601;-87
2023/03/27 11:10:10;;;;;;;7.13;0.63;;;7.50;99.90;;;;;;4998076;28;20321;-87
2023/03/27 11:12:41;;;;;;;0.30;0.30;;;8.30;99.90;;;;;;5013458;28;20227;-86
2023/03/27 11:15:10;;;;;;;0.30;0.30;;;8.10;99.90;;;;;;4995646;28;20202;-86
2023/03/27 11:17:47;;;;;;;0.10;0.10;;;8.50;99.90;;;;;;5016747;28;20202;-86
2023/03/27 11:20:59;;;;;;;0.57;0.57;;;8.40;99.90;;;;;;5012070;28;20261;-86
2023/03/27 11:23:54;;;;;;;2.40;0.53;;;8.20;99.90;;;;;;4954563;28;20231;-87
2023/03/27 11:26:24;;;;;;;4.67;0.50;;;8.10;99.90;;;;;;4962406;28;20323;-86
2023/03/27 11:28:56;;;;;;;0.30;0.30;;;8.10;99.90;;;;;;4997156;28;20272;-86
2023/03/27 11:31:49;;;;;;;0.40;0.40;;;8.30;99.90;;;;;;5012279;28;20222;-86
2023/03/27 11:34:36;;;;;;;0.27;0.27;;;8.30;99.90;;;;;;4997470;28;20266;-86
2023/03/27 11:37:14;;;;;;;0.10;0.10;;;8.30;99.90;;;;;;5023566;28;20232;-86
2023/03/27 11:40:11;;;;;;;0.47;0.47;;;8.00;99.90;;;;;;5023561;28;20227;-86
2023/03/27 11:42:44;;;;;;;0.20;0.20;;;7.60;99.90;;;;;;5023430;28;20218;-85
2023/03/27 11:45:23;;;;;;;0.20;0.20;;;8.20;99.90;;;;;;5022860;28;20263;-86
2023/03/27 11:48:07;;;;;;;1.20;0.57;;;8.30;99.90;;;;;;5015850;28;20174;-86
2023/03/27 11:50:53;;;;;;;2.27;0.40;;;8.60;99.90;;;;;;4996971;28;20206;-86
2023/03/27 11:53:44;;;;;;;0.37;0.37;;;8.30;99.90;;;;;;5012067;28;20214;-86
2023/03/27 11:56:12;;;;;;;0.10;0.10;;;8.00;99.90;;;;;;5023230;28;20371;-86
2023/03/27 11:58:56;;;;;;;0.20;0.20;;;8.40;99.90;;;;;;5022804;28;20214;-86
2023/03/27 12:01:36;;;;;;;0.20;0.20;;;8.90;99.90;;;;;;5022252;28;20222;-86
2023/03/27 12:04:22;;;;;;;0.83;0.83;;;9.00;99.90;;;;;;5023085;28;20297;-86
2023/03/27 12:07:16;;;;;;;7.33;0.40;;;9.20;99.90;;;;;;5022941;28;20226;-85
2023/03/27 12:09:49;;;;;;;0.27;0.27;;;8.40;99.90;;;;;;5004630;28;20257;-87
2023/03/27 12:12:32;;;;;;;2.37;0.77;;;8.10;99.90;;;;;;5023006;28;20217;-86
2023/03/27 12:15:22;;;;;;;0.30;0.30;;;7.90;99.90;;;;;;5023103;28;20187;-86
2023/03/27 12:17:57;;;;;;;0.20;0.20;;;7.50;99.90;;;;;;5005585;28;20616;-87
2023/03/27 12:20:36;;;;;;;0.30;0.30;;;7.00;99.90;;;;;;5004753;28;20252;-86
2023/03/27 12:23:27;;;;;;;0.50;0.50;;;7.40;99.90;;;;;;5023001;28;20250;-86
2023/03/27 12:26:20;;;;;;;0.30;0.30;;;8.30;99.90;;;;;;5021980;28;20226;-86
2023/03/27 12:29:14;;;;;;;0.30;0.30;;;8.30;99.90;;;;;;5004284;28;20688;-86
2023/03/27 12:31:55;;;;;;;0.20;0.20;;;8.30;99.90;;;;;;5004015;28;20628;-86
2023/03/27 12:34:36;;;;;;;0.13;0.13;;;8.50;99.90;;;;;;5020722;28;20270;-85
2023/03/27 12:37:03;;;;;;;0.70;0.33;;;8.20;99.90;;;;;;5003664;28;20232;-86
2023/03/27 12:39:29;;;;;;;0.20;0.20;;;8.30;99.90;;;;;;5020237;28;20226;-86
2023/03/27 12:41:55;;;;;;;0.20;0.20;;;8.30;99.90;;;;;;5023673;28;20208;-86
2023/03/27 12:44:31;;;;;;;0.77;0.73;;;8.10;99.90;;;;;;5023524;28;20868;-90
2023/03/27 12:47:22;;;;;;;1.17;0.50;;;8.20;99.90;;;;;;5021538;28;20238;-86
2023/03/27 12:49:59;;;;;;;0.30;0.30;;;8.40;99.90;;;;;;5021479;28;20983;-86
2023/03/27 12:52:26;;;;;;;0.20;0.20;;;7.90;99.90;;;;;;5021642;28;20229;-87
2023/03/27 12:55:06;;;;;;;0.20;0.20;;;7.30;99.90;;;;;;5022626;28;20251;-86
2023/03/27 12:57:41;;;;;;;0.40;0.40;;;7.50;99.90;;;;;;5022599;28;20240;-86
2023/03/27 13:00:26;;;;;;;3.00;2.83;;;7.50;99.90;;;;;;4996520;28;20182;-86
2023/03/27 13:03:20;;;;;;;0.20;0.20;;;7.50;99.90;;;;;;5004280;28;20660;-86
2023/03/27 13:06:00;;;;;;;0.20;0.20;;;7.90;99.90;;;;;;5022494;28;20630;-86
2023/03/27 13:08:52;;;;;;;0.40;0.40;;;7.70;99.90;;;;;;5022309;28;20221;-86
2023/03/27 13:11:26;;;;;;;0.37;0.37;;;7.70;99.90;;;;;;5021725;28;20221;-87
2023/03/27 13:13:54;;;;;;;1.30;0.50;;;7.90;99.90;;;;;;5005056;28;20217;-87
2023/03/27 13:16:23;;;;;;;1.30;0.20;;;8.00;99.90;;;;;;5022026;28;20237;-87
2023/03/27 13:18:55;;;;;;;0.30;0.30;;;8.00;99.90;;;;;;5003549;28;20230;-87
2023/03/27 13:21:39;;;;;;;0.20;0.20;;;8.20;99.90;;;;;;5003506;28;20237;-86
2023/03/27 13:24:37;;;;;;;0.20;0.20;;;8.00;99.90;;;;;;5022528;28;20244;-86
2023/03/27 13:27:09;;;;;;;0.10;0.10;;;7.90;99.90;;;;;;5021915;28;20287;-86